sensor_id;sensor_type;location;lat;lon;timestamp;pressure;altitude;pressure_sealevel;temperature;humidity
55656;BME280;41530;52.382;5.270;2023-01-27T00:00:33;102848.38;;;13.76;50.74
55656;BME280;41530;52.382;5.270;2023-01-27T00:02:59;102844.88;;;13.76;50.71
55656;BME280;41530;52.382;5.270;2023-01-27T00:05:26;102836.09;;;13.75;50.71
55656;BME280;41530;52.382;5.270;2023-01-27T00:07:53;102829.94;;;13.75;50.57
55656;BME280;41530;52.382;5.270;2023-01-27T00:10:23;102837.88;;;13.75;50.75
55656;BME280;41530;52.382;5.270;2023-01-27T00:12:50;102823.88;;;13.73;50.74
55656;BME280;41530;52.382;5.270;2023-01-27T00:15:36;102837.03;;;13.74;50.73
55656;BME280;41530;52.382;5.270;2023-01-27T00:18:04;102826.50;;;13.73;50.89
55656;BME280;41530;52.382;5.270;2023-01-27T00:20:31;102820.28;;;13.74;50.67
55656;BME280;41530;52.382;5.270;2023-01-27T00:23:18;102824.72;;;13.73;50.68
55656;BME280;41530;52.382;5.270;2023-01-27T00:26:06;102819.50;;;13.72;50.69
55656;BME280;41530;52.382;5.270;2023-01-27T00:28:34;102830.09;;;13.72;50.64
55656;BME280;41530;52.382;5.270;2023-01-27T00:31:02;102834.56;;;13.71;50.66
55656;BME280;41530;52.382;5.270;2023-01-27T00:33:29;102829.25;;;13.71;50.50
55656;BME280;41530;52.382;5.270;2023-01-27T00:38:25;102834.63;;;13.70;50.66
55656;BME280;41530;52.382;5.270;2023-01-27T00:40:52;102841.63;;;13.71;50.54
55656;BME280;41530;52.382;5.270;2023-01-27T00:43:37;102840.78;;;13.70;50.52
55656;BME280;41530;52.382;5.270;2023-01-27T00:46:04;102851.38;;;13.70;50.47
55656;BME280;41530;52.382;5.270;2023-01-27T00:48:31;102842.56;;;13.70;50.61
55656;BME280;41530;52.382;5.270;2023-01-27T00:50:58;102830.41;;;13.66;50.32
55656;BME280;41530;52.382;5.270;2023-01-27T00:53:25;102832.28;;;13.64;50.36
55656;BME280;41530;52.382;5.270;2023-01-27T00:55:52;102843.50;;;13.69;50.38
55656;BME280;41530;52.382;5.270;2023-01-27T00:58:19;102845.28;;;13.68;50.43
55656;BME280;41530;52.382;5.270;2023-01-27T01:00:47;102832.28;;;13.64;50.48
55656;BME280;41530;52.382;5.270;2023-01-27T01:03:15;102847.94;;;13.68;50.55
55656;BME280;41530;52.382;5.270;2023-01-27T01:05:42;102840.94;;;13.67;50.37
55656;BME280;41530;52.382;5.270;2023-01-27T01:08:09;102845.38;;;13.67;50.50
55656;BME280;41530;52.382;5.270;2023-01-27T01:10:37;102850.78;;;13.64;50.56
55656;BME280;41530;52.382;5.270;2023-01-27T01:13:05;102846.44;;;13.63;50.52
55656;BME280;41530;52.382;5.270;2023-01-27T01:15:38;102852.44;;;13.66;50.58
55656;BME280;41530;52.382;5.270;2023-01-27T01:18:06;102851.72;;;13.63;50.34
55656;BME280;41530;52.382;5.270;2023-01-27T01:20:42;102859.50;;;13.66;50.28
55656;BME280;41530;52.382;5.270;2023-01-27T01:23:11;102857.81;;;13.65;50.52
55656;BME280;41530;52.382;5.270;2023-01-27T01:25:38;102858.66;;;13.65;50.50
55656;BME280;41530;52.382;5.270;2023-01-27T01:28:06;102856.94;;;13.64;50.25
55656;BME280;41530;52.382;5.270;2023-01-27T01:30:34;102852.66;;;13.62;50.19
55656;BME280;41530;52.382;5.270;2023-01-27T01:33:01;102864.03;;;13.64;50.33
55656;BME280;41530;52.382;5.270;2023-01-27T01:35:28;102864.97;;;13.63;50.33
55656;BME280;41530;52.382;5.270;2023-01-27T01:37:56;102864.97;;;13.63;50.38
55656;BME280;41530;52.382;5.270;2023-01-27T01:40:23;102866.75;;;13.62;50.44
55656;BME280;41530;52.382;5.270;2023-01-27T01:42:55;102863.16;;;13.63;50.42
55656;BME280;41530;52.382;5.270;2023-01-27T01:47:58;102873.91;;;13.60;50.31
55656;BME280;41530;52.382;5.270;2023-01-27T01:50:26;102865.03;;;13.61;50.25
55656;BME280;41530;52.382;5.270;2023-01-27T01:52:53;102866.81;;;13.61;50.32
55656;BME280;41530;52.382;5.270;2023-01-27T01:55:22;102868.59;;;13.60;50.31
55656;BME280;41530;52.382;5.270;2023-01-27T01:57:50;102873.03;;;13.60;50.15
55656;BME280;41530;52.382;5.270;2023-01-27T02:00:18;102870.56;;;13.57;50.29
55656;BME280;41530;52.382;5.270;2023-01-27T02:02:45;102873.97;;;13.59;50.29
55656;BME280;41530;52.382;5.270;2023-01-27T02:05:24;102880.09;;;13.59;49.97
55656;BME280;41530;52.382;5.270;2023-01-27T02:07:57;102892.47;;;13.59;50.07
55656;BME280;41530;52.382;5.270;2023-01-27T02:10:25;102889.84;;;13.59;50.17
55656;BME280;41530;52.382;5.270;2023-01-27T02:12:52;102896.09;;;13.58;50.00
55656;BME280;41530;52.382;5.270;2023-01-27T02:15:19;102894.28;;;13.58;50.11
55656;BME280;41530;52.382;5.270;2023-01-27T02:17:47;102878.66;;;13.53;50.19
55656;BME280;41530;52.382;5.270;2023-01-27T02:28:05;102892.66;;;13.55;50.11
55656;BME280;41530;52.382;5.270;2023-01-27T02:30:32;102890.94;;;13.54;50.02
55656;BME280;41530;52.382;5.270;2023-01-27T02:32:59;102896.31;;;13.53;50.27
55656;BME280;41530;52.382;5.270;2023-01-27T02:35:35;102896.22;;;13.54;50.38
55656;BME280;41530;52.382;5.270;2023-01-27T02:38:04;102904.16;;;13.54;50.17
55656;BME280;41530;52.382;5.270;2023-01-27T02:40:33;102894.66;;;13.50;50.06
55656;BME280;41530;52.382;5.270;2023-01-27T02:43:03;102905.09;;;13.53;50.15
55656;BME280;41530;52.382;5.270;2023-01-27T02:45:30;102906.09;;;13.51;50.00
55656;BME280;41530;52.382;5.270;2023-01-27T02:47:57;102901.66;;;13.51;50.05
55656;BME280;41530;52.382;5.270;2023-01-27T02:50:24;102913.09;;;13.52;50.12
55656;BME280;41530;52.382;5.270;2023-01-27T02:52:51;102919.25;;;13.52;50.07
55656;BME280;41530;52.382;5.270;2023-01-27T02:55:18;102912.25;;;13.51;50.06
55656;BME280;41530;52.382;5.270;2023-01-27T02:57:45;102906.25;;;13.48;50.19
55656;BME280;41530;52.382;5.270;2023-01-27T03:00:12;102915.81;;;13.50;49.91
55656;BME280;41530;52.382;5.270;2023-01-27T03:02:39;102914.09;;;13.49;49.96
55656;BME280;41530;52.382;5.270;2023-01-27T03:05:06;102910.53;;;13.50;49.86
55656;BME280;41530;52.382;5.270;2023-01-27T03:07:33;102911.53;;;13.48;50.20
55656;BME280;41530;52.382;5.270;2023-01-27T03:10:00;102917.59;;;13.50;50.15
55656;BME280;41530;52.382;5.270;2023-01-27T03:12:27;102917.66;;;13.48;49.98
55656;BME280;41530;52.382;5.270;2023-01-27T03:14:54;102918.53;;;13.49;50.05
55656;BME280;41530;52.382;5.270;2023-01-27T03:17:40;102927.38;;;13.48;50.10
55656;BME280;41530;52.382;5.270;2023-01-27T03:20:25;102926.53;;;13.47;49.95
55656;BME280;41530;52.382;5.270;2023-01-27T03:22:52;102924.88;;;13.45;49.85
55656;BME280;41530;52.382;5.270;2023-01-27T03:25:19;102923.03;;;13.47;50.08
55656;BME280;41530;52.382;5.270;2023-01-27T03:27:45;102930.09;;;13.46;50.08
55656;BME280;41530;52.382;5.270;2023-01-27T03:30:12;102933.59;;;13.47;49.80
55656;BME280;41530;52.382;5.270;2023-01-27T03:32:39;102927.47;;;13.46;49.82
55656;BME280;41530;52.382;5.270;2023-01-27T03:35:13;102936.31;;;13.45;49.80
55656;BME280;41530;52.382;5.270;2023-01-27T03:37:41;102938.03;;;13.46;49.72
55656;BME280;41530;52.382;5.270;2023-01-27T03:40:27;102931.03;;;13.45;49.87
55656;BME280;41530;52.382;5.270;2023-01-27T03:43:12;102940.75;;;13.45;49.84
55656;BME280;41530;52.382;5.270;2023-01-27T03:45:57;102939.06;;;13.44;49.76
55656;BME280;41530;52.382;5.270;2023-01-27T03:49:02;102937.34;;;13.43;49.83
55656;BME280;41530;52.382;5.270;2023-01-27T03:51:29;102937.34;;;13.43;50.02
55656;BME280;41530;52.382;5.270;2023-01-27T03:53:55;102943.56;;;13.42;50.01
55656;BME280;41530;52.382;5.270;2023-01-27T03:56:22;102943.63;;;13.40;49.92
55656;BME280;41530;52.382;5.270;2023-01-27T03:58:49;102942.72;;;13.41;50.03
55656;BME280;41530;52.382;5.270;2023-01-27T04:01:22;102945.34;;;13.41;49.75
55656;BME280;41530;52.382;5.270;2023-01-27T04:03:50;102941.91;;;13.39;49.80
55656;BME280;41530;52.382;5.270;2023-01-27T04:06:38;102945.44;;;13.40;49.86
55656;BME280;41530;52.382;5.270;2023-01-27T04:09:32;102951.63;;;13.39;49.86
55656;BME280;41530;52.382;5.270;2023-01-27T04:12:02;102953.28;;;13.41;49.86
55656;BME280;41530;52.382;5.270;2023-01-27T04:17:03;102962.16;;;13.40;49.89
55656;BME280;41530;52.382;5.270;2023-01-27T04:19:30;102948.22;;;13.37;49.79
55656;BME280;41530;52.382;5.270;2023-01-27T04:21:58;102966.66;;;13.38;49.76
55656;BME280;41530;52.382;5.270;2023-01-27T04:24:26;102963.16;;;13.38;49.76
55656;BME280;41530;52.382;5.270;2023-01-27T04:26:58;102963.06;;;13.39;49.70
55656;BME280;41530;52.382;5.270;2023-01-27T04:29:27;102964.84;;;13.39;50.00
55656;BME280;41530;52.382;5.270;2023-01-27T04:31:55;102953.72;;;13.32;49.75
55656;BME280;41530;52.382;5.270;2023-01-27T04:34:24;102956.06;;;13.38;49.72
55656;BME280;41530;52.382;5.270;2023-01-27T04:36:51;102957.84;;;13.38;50.11
55656;BME280;41530;52.382;5.270;2023-01-27T04:39:18;102954.28;;;13.39;49.79
55656;BME280;41530;52.382;5.270;2023-01-27T04:41:45;102959.66;;;13.37;49.66
55656;BME280;41530;52.382;5.270;2023-01-27T04:44:12;102959.66;;;13.37;49.65
55656;BME280;41530;52.382;5.270;2023-01-27T04:46:39;102967.56;;;13.37;49.75
55656;BME280;41530;52.382;5.270;2023-01-27T04:49:06;102958.78;;;13.37;49.79
55656;BME280;41530;52.382;5.270;2023-01-27T04:51:34;102952.78;;;13.33;49.92
55656;BME280;41530;52.382;5.270;2023-01-27T04:54:01;102976.38;;;13.38;49.92
55656;BME280;41530;52.382;5.270;2023-01-27T04:56:34;102966.72;;;13.37;49.76
55656;BME280;41530;52.382;5.270;2023-01-27T04:59:05;102970.28;;;13.36;49.74
55656;BME280;41530;52.382;5.270;2023-01-27T05:01:32;102971.22;;;13.35;49.70
55656;BME280;41530;52.382;5.270;2023-01-27T05:03:59;102975.66;;;13.34;49.57
55656;BME280;41530;52.382;5.270;2023-01-27T05:06:26;102976.63;;;13.32;49.39
55656;BME280;41530;52.382;5.270;2023-01-27T05:08:53;102982.72;;;13.34;49.74
55656;BME280;41530;52.382;5.270;2023-01-27T05:11:20;102978.34;;;13.33;49.50
55656;BME280;41530;52.382;5.270;2023-01-27T05:13:47;102984.50;;;13.33;49.57
55656;BME280;41530;52.382;5.270;2023-01-27T05:16:19;102968.72;;;13.32;49.47
55656;BME280;41530;52.382;5.270;2023-01-27T05:18:48;102982.78;;;13.32;49.34
55656;BME280;41530;52.382;5.270;2023-01-27T05:21:25;102978.47;;;13.31;49.49
55656;BME280;41530;52.382;5.270;2023-01-27T05:23:56;102982.88;;;13.31;49.53
55656;BME280;41530;52.382;5.270;2023-01-27T05:26:25;102998.75;;;13.31;49.25
55656;BME280;41530;52.382;5.270;2023-01-27T05:28:53;102976.94;;;13.26;49.53
55656;BME280;41530;52.382;5.270;2023-01-27T05:31:24;102993.47;;;13.31;49.31
55656;BME280;41530;52.382;5.270;2023-01-27T05:33:52;102990.88;;;13.29;49.48
55656;BME280;41530;52.382;5.270;2023-01-27T05:36:21;102992.66;;;13.29;49.51
55656;BME280;41530;52.382;5.270;2023-01-27T05:38:48;102987.38;;;13.29;49.54
55656;BME280;41530;52.382;5.270;2023-01-27T05:41:16;103004.09;;;13.29;49.48
55656;BME280;41530;52.382;5.270;2023-01-27T05:43:44;103008.66;;;13.26;49.60
55656;BME280;41530;52.382;5.270;2023-01-27T05:46:12;103015.59;;;13.28;49.31
55656;BME280;41530;52.382;5.270;2023-01-27T05:48:42;103018.19;;;13.30;49.46
55656;BME280;41530;52.382;5.270;2023-01-27T05:51:10;103019.25;;;13.26;49.26
55656;BME280;41530;52.382;5.270;2023-01-27T05:53:40;103017.38;;;13.28;49.46
55656;BME280;41530;52.382;5.270;2023-01-27T05:56:08;103022.69;;;13.28;49.35
55656;BME280;41530;52.382;5.270;2023-01-27T05:58:36;103025.31;;;13.28;49.09
55656;BME280;41530;52.382;5.270;2023-01-27T06:01:14;103014.94;;;13.23;48.91
55656;BME280;41530;52.382;5.270;2023-01-27T06:03:41;103025.25;;;13.29;49.07
55656;BME280;41530;52.382;5.270;2023-01-27T06:06:10;103029.69;;;13.29;49.03
55656;BME280;41530;52.382;5.270;2023-01-27T06:08:38;103017.44;;;13.26;49.18
55656;BME280;41530;52.382;5.270;2023-01-27T06:11:06;103027.91;;;13.29;49.40
55656;BME280;41530;52.382;5.270;2023-01-27T06:13:34;103020.75;;;13.31;49.26
55656;BME280;41530;52.382;5.270;2023-01-27T06:16:02;103021.69;;;13.30;49.30
55656;BME280;41530;52.382;5.270;2023-01-27T06:18:30;103024.22;;;13.32;49.13
55656;BME280;41530;52.382;5.270;2023-01-27T06:20:58;103026.78;;;13.33;49.26
55656;BME280;41530;52.382;5.270;2023-01-27T06:23:25;103026.88;;;13.32;49.43
55656;BME280;41530;52.382;5.270;2023-01-27T06:25:53;103033.72;;;13.36;49.42
55656;BME280;41530;52.382;5.270;2023-01-27T06:28:21;103038.03;;;13.38;49.28
55656;BME280;41530;52.382;5.270;2023-01-27T06:30:55;103038.97;;;13.37;49.16
55656;BME280;41530;52.382;5.270;2023-01-27T06:33:22;103031.81;;;13.39;49.00
55656;BME280;41530;52.382;5.270;2023-01-27T06:35:49;103027.38;;;13.40;48.99
55656;BME280;41530;52.382;5.270;2023-01-27T06:38:16;103026.72;;;13.35;48.99
55656;BME280;41530;52.382;5.270;2023-01-27T06:40:43;103028.50;;;13.34;49.05
55656;BME280;41530;52.382;5.270;2023-01-27T06:43:13;103030.88;;;13.40;48.83
55656;BME280;41530;52.382;5.270;2023-01-27T06:45:40;103030.97;;;13.39;49.00
55656;BME280;41530;52.382;5.270;2023-01-27T06:48:07;103038.81;;;13.40;48.99
55656;BME280;41530;52.382;5.270;2023-01-27T06:50:35;103040.53;;;13.41;48.92
55656;BME280;41530;52.382;5.270;2023-01-27T06:53:06;103028.38;;;13.37;48.61
55656;BME280;41530;52.382;5.270;2023-01-27T06:55:34;103036.09;;;13.42;48.89
55656;BME280;41530;52.382;5.270;2023-01-27T06:58:01;103036.19;;;13.40;48.87
55656;BME280;41530;52.382;5.270;2023-01-27T07:00:29;103026.59;;;13.38;48.67
55656;BME280;41530;52.382;5.270;2023-01-27T07:02:56;103039.75;;;13.39;48.83
55656;BME280;41530;52.382;5.270;2023-01-27T07:05:23;103026.78;;;13.33;48.63
55656;BME280;41530;52.382;5.270;2023-01-27T07:07:50;103036.25;;;13.39;48.84
55656;BME280;41530;52.382;5.270;2023-01-27T07:10:17;103044.19;;;13.39;48.83
55656;BME280;41530;52.382;5.270;2023-01-27T07:12:44;103052.97;;;13.39;48.86
55656;BME280;41530;52.382;5.270;2023-01-27T07:15:10;103054.75;;;13.39;48.84
55656;BME280;41530;52.382;5.270;2023-01-27T07:17:38;103060.91;;;13.39;48.68
55656;BME280;41530;52.382;5.270;2023-01-27T07:20:07;103064.41;;;13.40;48.95
55656;BME280;41530;52.382;5.270;2023-01-27T07:22:35;103072.34;;;13.40;48.74
55656;BME280;41530;52.382;5.270;2023-01-27T07:25:02;103071.59;;;13.36;48.66
55656;BME280;41530;52.382;5.270;2023-01-27T07:27:29;103079.41;;;13.39;49.07
55656;BME280;41530;52.382;5.270;2023-01-27T07:29:56;103083.78;;;13.40;48.98
55656;BME280;41530;52.382;5.270;2023-01-27T07:32:23;103080.34;;;13.38;49.19
55656;BME280;41530;52.382;5.270;2023-01-27T07:34:53;103080.47;;;13.35;48.89
55656;BME280;41530;52.382;5.270;2023-01-27T07:37:20;103077.81;;;13.35;48.93
55656;BME280;41530;52.382;5.270;2023-01-27T07:39:47;103077.69;;;13.38;48.83
55656;BME280;41530;52.382;5.270;2023-01-27T07:42:14;103060.66;;;13.25;49.14
55656;BME280;41530;52.382;5.270;2023-01-27T07:44:41;103086.53;;;13.37;49.08
55656;BME280;41530;52.382;5.270;2023-01-27T07:47:07;103079.47;;;13.38;49.14
55656;BME280;41530;52.382;5.270;2023-01-27T07:49:34;103079.66;;;13.33;49.17
55656;BME280;41530;52.382;5.270;2023-01-27T07:52:01;103086.53;;;13.37;49.17
55656;BME280;41530;52.382;5.270;2023-01-27T07:54:28;103083.03;;;13.37;49.12
55656;BME280;41530;52.382;5.270;2023-01-27T07:56:54;103089.19;;;13.37;49.12
55656;BME280;41530;52.382;5.270;2023-01-27T07:59:21;103085.75;;;13.35;49.16
55656;BME280;41530;52.382;5.270;2023-01-27T08:01:48;103091.03;;;13.35;48.99
55656;BME280;41530;52.382;5.270;2023-01-27T08:04:15;103088.41;;;13.35;49.07
55656;BME280;41530;52.382;5.270;2023-01-27T08:06:42;103088.41;;;13.35;49.10
55656;BME280;41530;52.382;5.270;2023-01-27T08:09:09;103080.59;;;13.32;49.38
55656;BME280;41530;52.382;5.270;2023-01-27T08:11:36;103094.47;;;13.37;49.23
55656;BME280;41530;52.382;5.270;2023-01-27T08:14:03;103086.69;;;13.34;49.34
55656;BME280;41530;52.382;5.270;2023-01-27T08:16:30;103081.38;;;13.34;49.33
55656;BME280;41530;52.382;5.270;2023-01-27T08:18:58;103104.13;;;13.38;49.27
55656;BME280;41530;52.382;5.270;2023-01-27T08:21:25;103090.97;;;13.37;49.46
55656;BME280;41530;52.382;5.270;2023-01-27T08:23:52;103093.41;;;13.41;49.34
55656;BME280;41530;52.382;5.270;2023-01-27T08:26:19;103102.16;;;13.43;49.14
55656;BME280;41530;52.382;5.270;2023-01-27T08:28:46;103099.41;;;13.45;49.35
55656;BME280;41530;52.382;5.270;2023-01-27T08:31:14;103095.75;;;13.47;49.25
55656;BME280;41530;52.382;5.270;2023-01-27T08:33:49;103090.41;;;13.49;49.34
55656;BME280;41530;52.382;5.270;2023-01-27T08:36:17;103093.78;;;13.52;49.44
55656;BME280;41530;52.382;5.270;2023-01-27T08:38:44;103090.13;;;13.55;49.47
55656;BME280;41530;52.382;5.270;2023-01-27T08:41:13;103092.72;;;13.57;49.39
55656;BME280;41530;52.382;5.270;2023-01-27T08:43:40;103093.47;;;13.59;49.17
55656;BME280;41530;52.382;5.270;2023-01-27T08:46:08;103099.56;;;13.61;49.03
55656;BME280;41530;52.382;5.270;2023-01-27T08:48:36;103106.56;;;13.62;49.36
55656;BME280;41530;52.382;5.270;2023-01-27T08:51:05;103105.63;;;13.63;49.16
55656;BME280;41530;52.382;5.270;2023-01-27T08:53:32;103105.56;;;13.64;49.26
55656;BME280;41530;52.382;5.270;2023-01-27T08:56:04;103098.44;;;13.66;49.01
55656;BME280;41530;52.382;5.270;2023-01-27T08:58:31;103086.06;;;13.67;49.27
55656;BME280;41530;52.382;5.270;2023-01-27T09:01:03;103100.00;;;13.70;49.25
55656;BME280;41530;52.382;5.270;2023-01-27T09:03:30;103097.38;;;13.70;49.09
55656;BME280;41530;52.382;5.270;2023-01-27T09:05:58;103098.97;;;13.73;48.25
55656;BME280;41530;52.382;5.270;2023-01-27T09:08:26;103103.50;;;13.71;48.20
55656;BME280;41530;52.382;5.270;2023-01-27T09:10:53;103104.38;;;13.71;48.03
55656;BME280;41530;52.382;5.270;2023-01-27T09:13:20;103114.09;;;13.71;48.14
55656;BME280;41530;52.382;5.270;2023-01-27T09:15:51;103112.38;;;13.70;48.07
55656;BME280;41530;52.382;5.270;2023-01-27T09:18:19;103123.88;;;13.69;48.11
55656;BME280;41530;52.382;5.270;2023-01-27T09:20:45;103122.16;;;13.68;47.98
55656;BME280;41530;52.382;5.270;2023-01-27T09:23:12;103122.16;;;13.68;47.99
55656;BME280;41530;52.382;5.270;2023-01-27T09:25:39;103130.97;;;13.68;48.05
55656;BME280;41530;52.382;5.270;2023-01-27T09:28:07;103123.16;;;13.65;47.78
55656;BME280;41530;52.382;5.270;2023-01-27T09:30:45;103121.44;;;13.64;47.77
55656;BME280;41530;52.382;5.270;2023-01-27T09:33:13;103129.25;;;13.67;47.69
55656;BME280;41530;52.382;5.270;2023-01-27T09:35:48;103130.97;;;13.68;47.53
55656;BME280;41530;52.382;5.270;2023-01-27T09:38:19;103125.81;;;13.65;47.90
55656;BME280;41530;52.382;5.270;2023-01-27T09:46:40;103122.97;;;13.70;47.63
55656;BME280;41530;52.382;5.270;2023-01-27T09:55:15;103122.88;;;13.90;47.10
55656;BME280;41530;52.382;5.270;2023-01-27T10:00:48;103124.00;;;14.03;47.08
55656;BME280;41530;52.382;5.270;2023-01-27T10:20:18;103127.69;;;14.18;47.00
55656;BME280;41530;52.382;5.270;2023-01-27T10:28:12;103132.28;;;14.14;47.46
55656;BME280;41530;52.382;5.270;2023-01-27T10:34:55;103130.41;;;14.16;47.29
55656;BME280;41530;52.382;5.270;2023-01-27T10:42:21;103135.44;;;14.22;47.44
55656;BME280;41530;52.382;5.270;2023-01-27T10:50:44;103138.06;;;14.22;47.68
55656;BME280;41530;52.382;5.270;2023-01-27T10:56:09;103136.50;;;14.18;47.95
55656;BME280;41530;52.382;5.270;2023-01-27T10:58:59;103140.06;;;14.17;48.15
55656;BME280;41530;52.382;5.270;2023-01-27T11:01:39;103138.50;;;14.13;48.06
55656;BME280;41530;52.382;5.270;2023-01-27T11:04:13;103142.00;;;14.14;48.37
55656;BME280;41530;52.382;5.270;2023-01-27T11:06:42;103133.19;;;14.13;48.38
55656;BME280;41530;52.382;5.270;2023-01-27T11:09:24;103123.66;;;14.11;48.06
55656;BME280;41530;52.382;5.270;2023-01-27T11:11:55;103128.22;;;14.07;48.30
55656;BME280;41530;52.382;5.270;2023-01-27T11:14:45;103125.44;;;14.10;48.41
55656;BME280;41530;52.382;5.270;2023-01-27T11:17:27;103129.09;;;14.08;48.56
55656;BME280;41530;52.382;5.270;2023-01-27T11:20:10;103120.34;;;14.06;48.50
55656;BME280;41530;52.382;5.270;2023-01-27T11:22:54;103119.50;;;14.05;48.50
55656;BME280;41530;52.382;5.270;2023-01-27T11:28:11;103123.28;;;14.00;48.47
55656;BME280;41530;52.382;5.270;2023-01-27T11:30:52;103131.06;;;14.03;48.31
55656;BME280;41530;52.382;5.270;2023-01-27T11:33:33;103125.00;;;14.01;48.59
55656;BME280;41530;52.382;5.270;2023-01-27T11:36:03;103131.22;;;14.00;48.51
55656;BME280;41530;52.382;5.270;2023-01-27T11:38:30;103135.66;;;13.99;48.52
55656;BME280;41530;52.382;5.270;2023-01-27T11:40:57;103127.03;;;13.96;48.72
55656;BME280;41530;52.382;5.270;2023-01-27T11:43:24;103124.50;;;13.93;48.64
55656;BME280;41530;52.382;5.270;2023-01-27T11:45:59;103114.78;;;13.93;48.47
55656;BME280;41530;52.382;5.270;2023-01-27T11:48:37;103122.59;;;13.96;48.46
55656;BME280;41530;52.382;5.270;2023-01-27T11:51:21;103121.72;;;13.96;48.19
55656;BME280;41530;52.382;5.270;2023-01-27T11:54:03;103122.59;;;13.96;48.62
55656;BME280;41530;52.382;5.270;2023-01-27T11:56:35;103120.00;;;13.95;48.83
55656;BME280;41530;52.382;5.270;2023-01-27T11:59:09;103111.16;;;13.96;48.79
55656;BME280;41530;52.382;5.270;2023-01-27T12:01:43;103105.13;;;13.92;48.77
55656;BME280;41530;52.382;5.270;2023-01-27T12:04:20;103100.63;;;13.94;48.85
55656;BME280;41530;52.382;5.270;2023-01-27T12:07:04;103099.13;;;13.88;48.80
55656;BME280;41530;52.382;5.270;2023-01-27T12:09:34;103092.75;;;13.93;48.96
55656;BME280;41530;52.382;5.270;2023-01-27T12:12:20;103082.38;;;13.88;48.91
55656;BME280;41530;52.382;5.270;2023-01-27T12:17:24;103088.25;;;13.95;49.57
55656;BME280;41530;52.382;5.270;2023-01-27T12:19:54;103084.69;;;13.96;49.77
55656;BME280;41530;52.382;5.270;2023-01-27T12:22:35;103089.91;;;13.97;50.01
55656;BME280;41530;52.382;5.270;2023-01-27T12:25:06;103093.31;;;13.99;49.93
55656;BME280;41530;52.382;5.270;2023-01-27T12:27:46;103092.31;;;14.02;49.99
55656;BME280;41530;52.382;5.270;2023-01-27T12:30:19;103091.38;;;14.03;49.86
55656;BME280;41530;52.382;5.270;2023-01-27T12:32:47;103098.31;;;14.05;49.70
55656;BME280;41530;52.382;5.270;2023-01-27T12:37:48;103105.41;;;14.05;49.91
55656;BME280;41530;52.382;5.270;2023-01-27T12:40:22;103093.94;;;14.04;49.98
55656;BME280;41530;52.382;5.270;2023-01-27T12:43:16;103086.94;;;14.03;49.74
55656;BME280;41530;52.382;5.270;2023-01-27T12:45:44;103086.94;;;14.03;49.93
55656;BME280;41530;52.382;5.270;2023-01-27T12:48:30;103093.94;;;14.04;49.88
55656;BME280;41530;52.382;5.270;2023-01-27T12:51:11;103094.81;;;14.05;49.69
55656;BME280;41530;52.382;5.270;2023-01-27T12:53:39;103089.59;;;14.03;49.73
55656;BME280;41530;52.382;5.270;2023-01-27T12:56:14;103089.53;;;14.05;49.45
55656;BME280;41530;52.382;5.270;2023-01-27T13:01:33;103079.16;;;14.00;49.49
55656;BME280;41530;52.382;5.270;2023-01-27T13:04:03;103072.06;;;14.01;49.53
55656;BME280;41530;52.382;5.270;2023-01-27T13:12:00;103084.44;;;14.00;49.47
55656;BME280;41530;52.382;5.270;2023-01-27T13:14:29;103081.00;;;13.98;49.18
55656;BME280;41530;52.382;5.270;2023-01-27T13:16:58;103085.38;;;13.99;49.26
55656;BME280;41530;52.382;5.270;2023-01-27T13:19:33;103067.28;;;13.90;49.44
55656;BME280;41530;52.382;5.270;2023-01-27T13:22:02;103073.22;;;13.95;49.36
55656;BME280;41530;52.382;5.270;2023-01-27T13:24:36;103082.03;;;13.96;49.35
55656;BME280;41530;52.382;5.270;2023-01-27T13:27:12;103080.19;;;13.98;49.42
55656;BME280;41530;52.382;5.270;2023-01-27T13:29:48;103079.53;;;13.93;49.45
55656;BME280;41530;52.382;5.270;2023-01-27T13:32:23;103081.97;;;13.97;49.32
55656;BME280;41530;52.382;5.270;2023-01-27T13:37:30;103096.06;;;13.98;49.40
55656;BME280;41530;52.382;5.270;2023-01-27T13:48:11;103101.41;;;13.96;49.70
55656;BME280;41530;52.382;5.270;2023-01-27T13:51:26;103100.56;;;13.96;49.73
55656;BME280;41530;52.382;5.270;2023-01-27T13:54:01;103095.34;;;13.94;49.69
55656;BME280;41530;52.382;5.270;2023-01-27T14:05:42;103118.38;;;13.92;49.62
55656;BME280;41530;52.382;5.270;2023-01-27T14:22:02;103119.28;;;13.91;49.68
55656;BME280;41530;52.382;5.270;2023-01-27T14:24:45;103111.50;;;13.88;49.67
55656;BME280;41530;52.382;5.270;2023-01-27T14:27:19;103121.06;;;13.90;49.84
55656;BME280;41530;52.382;5.270;2023-01-27T14:30:06;103112.28;;;13.90;49.75
55656;BME280;41530;52.382;5.270;2023-01-27T14:35:23;103103.47;;;13.89;49.54
55656;BME280;41530;52.382;5.270;2023-01-27T14:47:06;103122.06;;;13.88;49.85
55656;BME280;41530;52.382;5.270;2023-01-27T14:49:49;103115.84;;;13.89;50.06
55656;BME280;41530;52.382;5.270;2023-01-27T15:03:58;103131.72;;;13.89;50.13
55656;BME280;41530;52.382;5.270;2023-01-27T15:06:44;103119.75;;;13.82;50.24
55656;BME280;41530;52.382;5.270;2023-01-27T15:25:35;103145.09;;;13.86;50.26
55656;BME280;41530;52.382;5.270;2023-01-27T15:28:04;103139.91;;;13.84;50.34
55656;BME280;41530;52.382;5.270;2023-01-27T15:30:33;103143.31;;;13.86;50.27
55656;BME280;41530;52.382;5.270;2023-01-27T15:34:23;103144.16;;;13.87;50.26
55656;BME280;41530;52.382;5.270;2023-01-27T15:39:16;103139.91;;;13.84;50.33
55656;BME280;41530;52.382;5.270;2023-01-27T15:44:30;103138.88;;;13.87;50.25
55656;BME280;41530;52.382;5.270;2023-01-27T15:47:10;103136.41;;;13.84;50.37
55656;BME280;41530;52.382;5.270;2023-01-27T15:49:44;103149.47;;;13.87;50.29
55656;BME280;41530;52.382;5.270;2023-01-27T15:54:49;103152.09;;;13.87;50.66
55656;BME280;41530;52.382;5.270;2023-01-27T16:00:27;103150.38;;;13.86;50.30